createdAt,value
2023-01-15T00:02:07.772Z,4.03
2023-01-15T00:04:35.055Z,2.20
2023-01-15T00:07:01.927Z,1.93
2023-01-15T00:09:28.861Z,2.93
2023-01-15T00:11:56.047Z,4.87
2023-01-15T00:14:22.969Z,4.60
2023-01-15T00:16:53.379Z,4.83
2023-01-15T00:19:20.478Z,3.17
2023-01-15T00:21:47.420Z,3.57
2023-01-15T00:24:32.766Z,3.07
2023-01-15T00:27:18.197Z,3.90
2023-01-15T00:29:45.067Z,3.13
2023-01-15T00:32:12.030Z,2.30
2023-01-15T00:34:39.126Z,4.93
2023-01-15T00:37:06.003Z,4.73
2023-01-15T00:39:34.532Z,2.20
2023-01-15T00:42:01.937Z,2.20
2023-01-15T00:44:29.219Z,2.80
2023-01-15T00:46:56.058Z,1.50
2023-01-15T00:49:23.121Z,2.13
2023-01-15T00:51:51.140Z,3.33
2023-01-15T00:54:18.245Z,1.77
2023-01-15T00:56:45.582Z,2.60
2023-01-15T00:59:12.764Z,2.27
2023-01-15T01:01:40.096Z,1.73
2023-01-15T01:04:07.137Z,1.70
2023-01-15T01:06:33.979Z,2.13
2023-01-15T01:09:01.059Z,2.93
2023-01-15T01:11:32.931Z,2.10
2023-01-15T01:14:01.219Z,2.30
2023-01-15T01:16:40.844Z,1.87
2023-01-15T01:19:13.500Z,2.03
2023-01-15T01:21:41.380Z,1.33
2023-01-15T01:24:10.521Z,2.23
2023-01-15T01:26:37.401Z,1.77
2023-01-15T01:29:04.933Z,2.00
2023-01-15T01:31:32.051Z,1.67
2023-01-15T01:33:59.666Z,2.37
2023-01-15T01:36:32.465Z,2.00
2023-01-15T01:38:59.953Z,1.43
2023-01-15T01:41:27.931Z,2.47
2023-01-15T01:43:59.364Z,1.13
2023-01-15T01:46:28.377Z,1.80
2023-01-15T01:49:00.725Z,2.20
2023-01-15T01:51:32.179Z,2.47
2023-01-15T01:54:01.652Z,2.30
2023-01-15T01:56:29.412Z,1.73
2023-01-15T01:58:56.881Z,2.77
2023-01-15T02:01:25.563Z,1.83
2023-01-15T02:03:53.901Z,2.00
2023-01-15T02:06:23.018Z,1.77
2023-01-15T02:08:50.169Z,1.63
2023-01-15T02:11:20.542Z,2.07
2023-01-15T02:14:02.207Z,2.20
2023-01-15T02:16:47.235Z,1.37
2023-01-15T02:19:40.420Z,2.10
2023-01-15T02:22:24.795Z,1.53
2023-01-15T02:25:08.234Z,1.27
2023-01-15T02:27:36.577Z,0.83
2023-01-15T02:30:29.841Z,1.90
2023-01-15T02:33:04.160Z,3.13
2023-01-15T02:35:46.552Z,1.37
2023-01-15T02:38:18.226Z,2.87
2023-01-15T02:40:47.058Z,2.83
2023-01-15T02:43:17.531Z,1.27
2023-01-15T02:45:48.623Z,1.27
2023-01-15T02:48:19.334Z,1.80
2023-01-15T02:50:53.414Z,2.27
2023-01-15T02:53:24.574Z,2.70
2023-01-15T02:55:54.693Z,1.47
2023-01-15T02:58:26.870Z,2.07
2023-01-15T03:00:56.703Z,1.67
2023-01-15T03:03:45.536Z,0.97
2023-01-15T03:06:31.849Z,2.53
2023-01-15T03:08:59.189Z,2.07
2023-01-15T03:11:26.775Z,1.03
2023-01-15T03:13:56.682Z,2.83
2023-01-15T03:16:35.873Z,1.33
2023-01-15T03:19:47.833Z,2.03
2023-01-15T03:22:28.643Z,0.77
2023-01-15T03:25:08.357Z,1.50
2023-01-15T03:27:35.300Z,1.60
2023-01-15T03:30:22.533Z,1.57
2023-01-15T03:32:49.460Z,1.53
2023-01-15T03:35:40.119Z,1.03
2023-01-15T03:38:07.068Z,0.80
2023-01-15T03:40:38.293Z,2.50
2023-01-15T03:43:28.669Z,1.60
2023-01-15T03:45:59.254Z,1.20
2023-01-15T03:48:35.918Z,0.97
2023-01-15T03:51:12.335Z,1.50
2023-01-15T03:54:02.035Z,1.67
2023-01-15T03:56:38.409Z,1.27
2023-01-15T03:59:34.147Z,2.00
2023-01-15T04:02:04.267Z,1.00
2023-01-15T04:04:32.056Z,2.20
2023-01-15T04:07:00.194Z,1.93
2023-01-15T04:09:27.435Z,1.43
2023-01-15T04:11:54.231Z,2.47
2023-01-15T04:14:21.080Z,2.03
2023-01-15T04:16:48.007Z,2.27
2023-01-15T04:19:15.035Z,1.37
2023-01-15T04:21:41.879Z,1.50
2023-01-15T04:24:08.841Z,1.53
2023-01-15T04:26:35.668Z,2.20
2023-01-15T04:29:02.604Z,1.60
2023-01-15T04:31:29.460Z,1.83
2023-01-15T04:33:56.493Z,1.47
2023-01-15T04:36:23.356Z,2.17
2023-01-15T04:38:50.189Z,1.73
2023-01-15T04:41:35.448Z,1.77
2023-01-15T04:44:08.453Z,1.87
2023-01-15T04:46:44.099Z,1.50
2023-01-15T04:49:13.523Z,1.90
2023-01-15T04:51:41.194Z,2.27
2023-01-15T04:54:10.893Z,1.53
2023-01-15T04:56:40.469Z,0.90
2023-01-15T04:59:07.521Z,1.20
2023-01-15T05:01:34.852Z,2.73
2023-01-15T05:04:02.024Z,1.17
2023-01-15T05:06:29.184Z,1.90
2023-01-15T05:08:56.053Z,1.33
2023-01-15T05:11:23.108Z,1.00
2023-01-15T05:13:49.951Z,1.40
2023-01-15T05:16:20.318Z,2.30
2023-01-15T05:18:47.919Z,1.73
2023-01-15T05:21:20.756Z,1.57
2023-01-15T05:23:49.767Z,1.17
2023-01-15T05:26:17.177Z,1.37
2023-01-15T05:28:44.380Z,0.97
2023-01-15T05:31:16.740Z,1.50
2023-01-15T05:33:44.858Z,1.63
2023-01-15T05:36:14.691Z,1.70
2023-01-15T05:38:42.324Z,0.77
2023-01-15T05:41:31.414Z,2.20
2023-01-15T05:44:01.718Z,1.87
2023-01-15T05:46:29.178Z,1.67
2023-01-15T05:49:03.341Z,2.07
2023-01-15T05:51:30.411Z,1.13
2023-01-15T05:53:58.078Z,1.87
2023-01-15T05:56:25.246Z,0.50
2023-01-15T05:58:52.520Z,2.17
2023-01-15T06:01:19.953Z,1.60
2023-01-15T06:03:48.432Z,1.27
2023-01-15T06:06:18.346Z,1.43
2023-01-15T06:08:45.708Z,1.33
2023-01-15T06:11:13.216Z,2.27
2023-01-15T06:13:40.596Z,1.50
2023-01-15T06:16:11.021Z,1.30
2023-01-15T06:18:39.430Z,0.97
2023-01-15T06:21:08.444Z,0.73
2023-01-15T06:23:36.867Z,2.37
2023-01-15T06:26:15.912Z,0.90
2023-01-15T06:28:43.252Z,1.03
2023-01-15T06:31:12.842Z,1.53
2023-01-15T06:33:39.809Z,1.97
2023-01-15T06:36:08.741Z,2.07
2023-01-15T06:38:35.650Z,1.53
2023-01-15T06:41:04.552Z,1.47
2023-01-15T06:43:49.803Z,1.07
2023-01-15T06:46:36.020Z,2.33
2023-01-15T06:49:02.928Z,2.17
2023-01-15T06:51:31.285Z,2.13
2023-01-15T06:53:58.217Z,2.77
2023-01-15T06:56:25.051Z,2.77
2023-01-15T06:58:51.846Z,2.63
2023-01-15T07:01:18.758Z,1.83
2023-01-15T07:03:45.677Z,2.10
2023-01-15T07:06:13.596Z,3.40
2023-01-15T07:08:40.702Z,2.60
2023-01-15T07:11:09.691Z,2.00
2023-01-15T07:13:37.039Z,1.97
2023-01-15T07:16:04.924Z,0.93
2023-01-15T07:18:33.874Z,0.80
2023-01-15T07:21:01.084Z,1.70
2023-01-15T07:23:28.392Z,0.90
2023-01-15T07:25:56.060Z,1.43
2023-01-15T07:28:24.556Z,1.53
2023-01-15T07:30:51.684Z,1.43
2023-01-15T07:33:18.707Z,2.00
2023-01-15T07:35:45.568Z,1.73
2023-01-15T07:38:12.382Z,1.77
2023-01-15T07:40:39.420Z,3.07
2023-01-15T07:43:24.751Z,1.87
2023-01-15T07:46:10.488Z,2.00
2023-01-15T07:48:56.171Z,1.20
2023-01-15T07:51:23.126Z,1.60
2023-01-15T07:53:49.905Z,1.87
2023-01-15T07:56:16.792Z,2.27
2023-01-15T07:58:49.169Z,2.13
2023-01-15T08:01:16.442Z,1.20
2023-01-15T08:03:43.474Z,1.67
2023-01-15T08:06:10.332Z,2.77
2023-01-15T08:08:37.178Z,1.37
2023-01-15T08:11:22.674Z,2.40
2023-01-15T08:14:08.274Z,0.90
2023-01-15T08:16:38.077Z,1.40
2023-01-15T08:19:04.988Z,2.50
2023-01-15T08:21:31.924Z,2.90
2023-01-15T08:23:58.801Z,1.70
2023-01-15T08:26:25.630Z,1.97
2023-01-15T08:28:52.475Z,2.30
2023-01-15T08:31:19.323Z,1.27
2023-01-15T08:33:46.214Z,2.17
2023-01-15T08:36:13.181Z,1.40
2023-01-15T08:38:39.987Z,1.40
2023-01-15T08:41:06.810Z,1.73
2023-01-15T08:43:33.812Z,1.83
2023-01-15T08:46:02.385Z,1.00
2023-01-15T08:48:30.935Z,1.63
2023-01-15T08:50:58.190Z,1.87
2023-01-15T08:53:25.540Z,1.97
2023-01-15T08:55:52.347Z,1.63
2023-01-15T08:58:19.295Z,2.10
2023-01-15T09:00:46.457Z,1.87
2023-01-15T09:03:13.543Z,1.67
2023-01-15T09:05:40.419Z,1.63
2023-01-15T09:08:07.837Z,2.00
2023-01-15T09:10:35.282Z,2.30
2023-01-15T09:13:03.525Z,1.20
2023-01-15T09:15:32.375Z,2.10
2023-01-15T09:17:59.460Z,2.43
2023-01-15T09:20:26.645Z,1.40
2023-01-15T09:22:53.572Z,2.00
2023-01-15T09:25:23.943Z,1.60
2023-01-15T09:27:51.067Z,1.63
2023-01-15T09:30:20.684Z,2.50
2023-01-15T09:32:48.310Z,1.40
2023-01-15T09:35:15.458Z,2.40
2023-01-15T09:37:42.291Z,1.60
2023-01-15T09:40:22.986Z,1.50
2023-01-15T09:43:02.164Z,1.50
2023-01-15T09:45:35.651Z,1.23
2023-01-15T09:48:40.624Z,1.87
2023-01-15T09:51:32.045Z,2.10
2023-01-15T09:54:07.973Z,1.17
2023-01-15T09:56:37.658Z,1.60
2023-01-15T09:59:17.059Z,0.97
2023-01-15T10:01:44.130Z,1.73
2023-01-15T10:04:37.932Z,1.77
2023-01-15T10:07:30.310Z,1.70
2023-01-15T10:10:02.802Z,1.70
2023-01-15T10:12:35.370Z,1.07
2023-01-15T10:15:14.130Z,1.50
2023-01-15T10:17:53.883Z,1.10
2023-01-15T10:20:42.700Z,1.13
2023-01-15T10:23:25.764Z,1.17
2023-01-15T10:26:02.163Z,1.53
2023-01-15T10:28:31.828Z,0.70
2023-01-15T10:31:19.182Z,1.13
2023-01-15T10:33:51.745Z,1.60
2023-01-15T10:36:29.381Z,2.40
2023-01-15T10:39:16.292Z,1.33
2023-01-15T10:42:12.343Z,1.37
2023-01-15T10:45:03.268Z,1.57
2023-01-15T10:47:36.839Z,0.90
2023-01-15T10:50:26.023Z,1.00
2023-01-15T10:53:02.497Z,1.30
2023-01-15T10:56:00.124Z,2.07
2023-01-15T10:58:48.705Z,1.63
2023-01-15T11:01:19.968Z,2.47
2023-01-15T11:03:47.642Z,0.70
2023-01-15T11:06:20.262Z,1.33
2023-01-15T11:09:09.058Z,2.37
2023-01-15T11:12:01.126Z,1.13
2023-01-15T11:14:59.728Z,1.43
2023-01-15T11:18:02.533Z,1.80
2023-01-15T11:20:35.377Z,0.90
2023-01-15T11:23:14.369Z,0.63
2023-01-15T11:25:59.652Z,1.07
2023-01-15T11:28:42.980Z,1.17
2023-01-15T11:31:12.065Z,0.80
2023-01-15T11:33:39.852Z,1.10
2023-01-15T11:36:19.352Z,0.93
2023-01-15T11:38:48.755Z,0.73
2023-01-15T11:42:00.651Z,1.10
2023-01-15T11:44:45.897Z,1.20
2023-01-15T11:47:33.596Z,1.43
2023-01-15T11:50:19.099Z,1.63
2023-01-15T11:52:52.607Z,0.50
2023-01-15T11:55:22.051Z,1.30
2023-01-15T11:57:50.581Z,1.57
2023-01-15T12:00:34.814Z,1.80
2023-01-15T12:03:06.304Z,1.20
2023-01-15T12:05:36.655Z,1.10
2023-01-15T12:08:31.522Z,1.40
2023-01-15T12:11:27.468Z,0.90
2023-01-15T12:14:13.215Z,0.83
2023-01-15T12:16:53.241Z,2.10
2023-01-15T12:19:34.368Z,2.37
2023-01-15T12:22:46.577Z,1.77
2023-01-15T12:25:38.410Z,1.10
2023-01-15T12:28:16.653Z,2.23
2023-01-15T12:31:12.748Z,2.20
2023-01-15T12:33:52.930Z,1.43
2023-01-15T12:36:32.068Z,2.30
2023-01-15T12:39:01.644Z,1.60
2023-01-15T12:41:54.677Z,1.63
2023-01-15T12:45:04.083Z,2.50
2023-01-15T12:47:54.830Z,2.50
2023-01-15T12:50:37.022Z,2.43
2023-01-15T12:53:16.994Z,1.50
2023-01-15T12:55:52.447Z,1.93
2023-01-15T12:58:40.601Z,2.43
2023-01-15T13:01:34.583Z,4.30
2023-01-15T13:04:32.328Z,3.77
2023-01-15T13:07:21.901Z,3.00
2023-01-15T13:10:22.508Z,1.47
2023-01-15T13:12:49.379Z,1.67
2023-01-15T13:15:18.338Z,3.40
2023-01-15T13:18:02.157Z,2.07
2023-01-15T13:20:37.702Z,3.00
2023-01-15T13:23:15.430Z,2.90
2023-01-15T13:26:21.177Z,2.70
2023-01-15T13:29:09.336Z,1.77
2023-01-15T13:31:49.998Z,2.03
2023-01-15T13:34:35.929Z,2.27
2023-01-15T13:37:25.725Z,1.37
2023-01-15T13:40:01.207Z,1.97
2023-01-15T13:42:38.128Z,1.40
2023-01-15T13:45:27.814Z,0.83
2023-01-15T13:47:59.644Z,1.87
2023-01-15T13:50:33.041Z,3.03
2023-01-15T13:53:04.539Z,2.33
2023-01-15T13:55:36.100Z,2.30
2023-01-15T13:58:03.238Z,2.77
2023-01-15T14:00:38.951Z,1.60
2023-01-15T14:03:26.504Z,2.70
2023-01-15T14:06:08.001Z,1.67
2023-01-15T14:08:43.993Z,1.93
2023-01-15T14:11:37.261Z,3.40
2023-01-15T14:14:28.582Z,1.37
2023-01-15T14:17:33.155Z,1.90
2023-01-15T14:20:18.969Z,1.63
2023-01-15T14:23:03.827Z,1.87
2023-01-15T14:25:50.984Z,2.47
2023-01-15T14:28:24.545Z,3.00
2023-01-15T14:31:32.681Z,1.03
2023-01-15T14:34:12.507Z,1.80
2023-01-15T14:36:52.562Z,1.80
2023-01-15T14:39:27.706Z,2.60
2023-01-15T14:42:25.049Z,1.43
2023-01-15T14:45:06.629Z,1.60
2023-01-15T14:47:51.754Z,2.13
2023-01-15T14:50:43.876Z,3.00
2023-01-15T14:53:13.710Z,1.30
2023-01-15T14:56:03.028Z,1.90
2023-01-15T14:59:03.495Z,1.60
2023-01-15T15:01:39.128Z,2.63
2023-01-15T15:04:15.276Z,1.13
2023-01-15T15:07:05.508Z,2.47
2023-01-15T15:10:04.611Z,2.17
2023-01-15T15:13:05.748Z,1.67
2023-01-15T15:15:41.008Z,1.70
2023-01-15T15:18:36.196Z,2.77
2023-01-15T15:21:08.244Z,2.00
2023-01-15T15:24:02.205Z,2.17
2023-01-15T15:26:31.787Z,2.03
2023-01-15T15:29:09.489Z,2.27
2023-01-15T15:31:39.436Z,3.00
2023-01-15T15:34:08.207Z,2.50
2023-01-15T15:36:39.298Z,2.73
2023-01-15T15:39:42.624Z,2.33
2023-01-15T15:42:47.063Z,3.13
2023-01-15T15:45:44.109Z,2.73
2023-01-15T15:48:39.557Z,2.07
2023-01-15T15:51:27.936Z,2.43
2023-01-15T15:54:06.003Z,2.23
2023-01-15T15:56:34.269Z,3.00
2023-01-15T15:59:02.153Z,2.17
2023-01-15T16:01:29.164Z,2.20
2023-01-15T16:03:56.180Z,1.70
2023-01-15T16:06:27.262Z,3.70
2023-01-15T16:08:58.023Z,3.27
2023-01-15T16:11:25.761Z,2.60
2023-01-15T16:13:54.843Z,3.03
2023-01-15T16:16:24.770Z,2.43
2023-01-15T16:19:00.129Z,3.53
2023-01-15T16:21:36.190Z,2.90
2023-01-15T16:24:05.651Z,3.00
2023-01-15T16:26:42.462Z,3.37
2023-01-15T16:29:21.279Z,3.10
2023-01-15T16:31:51.291Z,2.90
2023-01-15T16:34:30.591Z,2.60
2023-01-15T16:36:59.274Z,2.70
2023-01-15T16:39:28.845Z,3.00
2023-01-15T16:41:57.793Z,3.07
2023-01-15T16:44:52.465Z,1.93
2023-01-15T16:47:25.733Z,2.77
2023-01-15T16:49:52.919Z,3.43
2023-01-15T16:52:56.856Z,2.77
2023-01-15T16:55:36.834Z,2.57
2023-01-15T16:58:12.635Z,2.53
2023-01-15T17:00:41.175Z,3.30
2023-01-15T17:03:15.563Z,2.13
2023-01-15T17:05:43.662Z,3.17
2023-01-15T17:08:33.359Z,1.80
2023-01-15T17:11:02.341Z,2.63
2023-01-15T17:13:36.059Z,2.60
2023-01-15T17:16:06.664Z,1.87
2023-01-15T17:18:34.293Z,3.80
2023-01-15T17:21:01.686Z,3.37
2023-01-15T17:23:31.443Z,3.40
2023-01-15T17:25:58.559Z,4.73
2023-01-15T17:28:26.014Z,3.30
2023-01-15T17:30:58.058Z,3.60
2023-01-15T17:33:25.078Z,2.73
2023-01-15T17:35:53.606Z,4.50
2023-01-15T17:38:20.711Z,4.43
2023-01-15T17:40:47.512Z,3.30
2023-01-15T17:43:16.030Z,2.40
2023-01-15T17:45:43.530Z,4.27
2023-01-15T17:48:10.619Z,4.70
2023-01-15T17:50:37.827Z,3.17
2023-01-15T17:53:05.672Z,3.67
2023-01-15T17:55:51.367Z,2.07
2023-01-15T17:58:36.643Z,3.03
2023-01-15T18:01:30.137Z,4.73
2023-01-15T18:04:15.915Z,2.30
2023-01-15T18:06:48.205Z,2.33
2023-01-15T18:09:16.726Z,3.07
2023-01-15T18:11:45.204Z,4.37
2023-01-15T18:14:12.117Z,2.97
2023-01-15T18:16:39.107Z,5.20
2023-01-15T18:19:06.330Z,5.17
2023-01-15T18:21:36.396Z,4.43
2023-01-15T18:24:04.395Z,3.90
2023-01-15T18:26:31.293Z,4.50
2023-01-15T18:28:58.218Z,4.27
2023-01-15T18:31:25.051Z,7.33
2023-01-15T18:33:51.941Z,4.73
2023-01-15T18:36:18.767Z,4.07
2023-01-15T18:38:47.128Z,4.47
2023-01-15T18:41:34.988Z,3.33
2023-01-15T18:44:30.955Z,3.23
2023-01-15T18:47:01.041Z,3.83
2023-01-15T18:49:29.105Z,3.83
2023-01-15T18:52:14.447Z,5.47
2023-01-15T18:54:41.271Z,4.83
2023-01-15T18:57:08.259Z,4.07
2023-01-15T18:59:35.334Z,3.77
2023-01-15T19:02:02.157Z,4.77
2023-01-15T19:04:29.147Z,3.93
2023-01-15T19:06:56.290Z,2.90
2023-01-15T19:09:24.464Z,5.27
2023-01-15T19:11:52.590Z,5.63
2023-01-15T19:14:39.104Z,5.70
2023-01-15T19:17:24.877Z,4.33
2023-01-15T19:19:51.748Z,3.77
2023-01-15T19:22:37.026Z,4.27
2023-01-15T19:25:04.228Z,3.40
2023-01-15T19:27:31.102Z,2.17
2023-01-15T19:29:58.823Z,3.27
2023-01-15T19:32:25.724Z,2.83
2023-01-15T19:34:53.240Z,2.93
2023-01-15T19:37:22.235Z,2.40
2023-01-15T19:39:49.065Z,5.07
2023-01-15T19:42:34.971Z,3.97
2023-01-15T19:45:20.195Z,3.60
2023-01-15T19:48:05.639Z,4.77
2023-01-15T19:50:32.478Z,3.17
2023-01-15T19:52:59.346Z,3.23
2023-01-15T19:55:28.175Z,3.60
2023-01-15T19:58:03.420Z,3.30
2023-01-15T20:00:31.896Z,2.17
2023-01-15T20:02:58.902Z,3.90
2023-01-15T20:05:27.750Z,2.30
2023-01-15T20:07:55.058Z,3.93
2023-01-15T20:10:23.609Z,3.90
2023-01-15T20:13:10.027Z,2.90
2023-01-15T20:15:39.424Z,3.70
2023-01-15T20:18:06.432Z,2.70
2023-01-15T20:20:34.467Z,2.93
2023-01-15T20:23:01.931Z,1.93
2023-01-15T20:25:30.034Z,2.30
2023-01-15T20:27:59.950Z,4.27
2023-01-15T20:30:27.663Z,3.80
2023-01-15T20:32:57.981Z,3.47
2023-01-15T20:35:29.221Z,4.70
2023-01-15T20:37:56.047Z,2.00
2023-01-15T20:40:26.597Z,2.43
2023-01-15T20:43:12.763Z,3.67
2023-01-15T20:45:40.724Z,2.67
2023-01-15T20:48:13.453Z,3.70
2023-01-15T20:51:01.232Z,2.67
2023-01-15T20:53:33.973Z,3.10
2023-01-15T20:56:10.653Z,3.00
2023-01-15T20:58:37.604Z,3.50
2023-01-15T21:01:08.896Z,3.27
2023-01-15T21:03:37.062Z,2.50
2023-01-15T21:06:05.221Z,2.60
2023-01-15T21:08:33.688Z,4.23
2023-01-15T21:11:01.014Z,2.47
2023-01-15T21:13:27.931Z,2.47
2023-01-15T21:16:03.401Z,2.97
2023-01-15T21:18:32.059Z,3.10
2023-01-15T21:20:59.080Z,2.27
2023-01-15T21:23:25.968Z,3.87
2023-01-15T21:26:00.809Z,2.77
2023-01-15T21:28:28.652Z,2.70
2023-01-15T21:30:55.543Z,2.80
2023-01-15T21:33:22.427Z,2.43
2023-01-15T21:35:49.267Z,2.03
2023-01-15T21:38:16.074Z,2.30
2023-01-15T21:40:43.018Z,2.73
2023-01-15T21:43:28.803Z,4.20
2023-01-15T21:46:06.174Z,3.83
2023-01-15T21:48:33.797Z,3.77
2023-01-15T21:51:05.865Z,2.83
2023-01-15T21:53:33.362Z,1.70
2023-01-15T21:56:00.289Z,2.63
2023-01-15T21:58:27.150Z,3.20
2023-01-15T22:00:54.066Z,2.30
2023-01-15T22:03:20.972Z,2.97
2023-01-15T22:05:47.801Z,4.10
2023-01-15T22:08:14.726Z,3.30
2023-01-15T22:10:41.580Z,4.13
2023-01-15T22:13:11.169Z,3.20
2023-01-15T22:15:38.085Z,2.77
2023-01-15T22:18:05.165Z,3.33
2023-01-15T22:20:31.972Z,3.17
2023-01-15T22:22:58.943Z,3.90
2023-01-15T22:25:25.764Z,3.10
2023-01-15T22:27:54.074Z,2.20
2023-01-15T22:30:21.178Z,2.23
2023-01-15T22:32:49.562Z,2.00
2023-01-15T22:35:18.126Z,2.60
2023-01-15T22:37:45.014Z,2.67
2023-01-15T22:40:13.239Z,2.60
2023-01-15T22:42:40.053Z,3.33
2023-01-15T22:45:07.136Z,2.17
2023-01-15T22:47:34.015Z,2.83
2023-01-15T22:50:00.826Z,2.53
2023-01-15T22:52:28.401Z,4.33
2023-01-15T22:54:55.336Z,0.80
2023-01-15T22:57:23.480Z,1.70
2023-01-15T22:59:50.645Z,3.57
2023-01-15T23:02:18.175Z,2.47
2023-01-15T23:04:45.196Z,4.20
2023-01-15T23:07:12.245Z,3.17
2023-01-15T23:09:39.187Z,2.40
2023-01-15T23:12:06.162Z,3.20
2023-01-15T23:14:33.423Z,2.20
2023-01-15T23:17:00.332Z,1.90
2023-01-15T23:19:28.304Z,1.30
2023-01-15T23:21:55.555Z,2.10
2023-01-15T23:24:22.397Z,2.83
2023-01-15T23:26:49.283Z,2.53
2023-01-15T23:29:16.055Z,2.43
2023-01-15T23:31:42.988Z,2.63
2023-01-15T23:34:10.746Z,2.07
2023-01-15T23:36:37.631Z,4.33
2023-01-15T23:39:04.555Z,2.67
2023-01-15T23:41:50.007Z,2.13
2023-01-15T23:44:37.855Z,3.37
2023-01-15T23:47:05.950Z,3.30
2023-01-15T23:49:32.862Z,3.30
2023-01-15T23:52:00.086Z,3.23
2023-01-15T23:54:28.947Z,1.60
2023-01-15T23:56:56.597Z,2.47
2023-01-15T23:59:23.760Z,3.30
